createdAt,value
2018-09-29T00:00:44.539Z,63.12
2018-09-29T00:03:12.942Z,63.58
2018-09-29T00:05:41.244Z,64.78
2018-09-29T00:08:09.602Z,63.95
2018-09-29T00:10:37.976Z,61.95
2018-09-29T00:13:06.366Z,61.81
2018-09-29T00:15:34.812Z,62.04
2018-09-29T00:18:04.232Z,62.90
2018-09-29T00:20:32.585Z,63.26
2018-09-29T00:23:00.928Z,62.55
2018-09-29T00:25:29.291Z,65.99
2018-09-29T00:27:57.671Z,65.65
2018-09-29T00:30:26.042Z,61.44
2018-09-29T00:32:54.459Z,61.91
2018-09-29T00:35:22.819Z,64.35
2018-09-29T00:37:51.182Z,64.17
2018-09-29T00:40:19.567Z,62.14
2018-09-29T00:42:47.963Z,65.14
2018-09-29T00:45:20.255Z,64.87
2018-09-29T00:47:48.591Z,64.98
2018-09-29T00:50:16.919Z,64.36
2018-09-29T00:52:45.292Z,65.51
2018-09-29T00:55:13.652Z,64.03
2018-09-29T00:57:42.075Z,63.27
2018-09-29T01:00:10.396Z,63.19
2018-09-29T01:02:38.717Z,61.98
2018-09-29T01:05:07.035Z,62.61
2018-09-29T01:07:35.340Z,63.22
2018-09-29T01:10:03.711Z,62.62
2018-09-29T01:12:32.023Z,63.67
2018-09-29T01:15:00.359Z,62.03
2018-09-29T01:17:28.643Z,64.31
2018-09-29T01:19:56.948Z,64.52
2018-09-29T01:22:26.264Z,61.33
2018-09-29T01:24:54.603Z,62.73
2018-09-29T01:27:22.899Z,62.11
2018-09-29T01:29:51.213Z,62.89
2018-09-29T01:32:19.517Z,62.84
2018-09-29T01:34:47.919Z,64.08
2018-09-29T01:37:16.315Z,64.26
2018-09-29T01:39:44.620Z,65.22
2018-09-29T01:42:12.988Z,62.95
2018-09-29T01:44:41.312Z,65.82
2018-09-29T01:47:09.619Z,65.12
2018-09-29T01:49:37.939Z,64.42
2018-09-29T01:52:06.317Z,65.24
2018-09-29T01:54:34.711Z,64.51
2018-09-29T01:57:03.078Z,60.64
2018-09-29T01:59:31.478Z,59.93
2018-09-29T02:01:59.864Z,60.54
2018-09-29T02:04:28.249Z,64.62
2018-09-29T02:06:56.672Z,63.26
2018-09-29T02:09:25.135Z,63.94
2018-09-29T02:11:53.440Z,62.61
2018-09-29T02:14:22.001Z,63.18
2018-09-29T02:16:50.348Z,61.40
2018-09-29T02:19:18.743Z,61.73
2018-09-29T02:21:47.109Z,61.60
2018-09-29T02:24:16.466Z,62.75
2018-09-29T02:26:44.872Z,64.42
2018-09-29T02:29:13.316Z,64.38
2018-09-29T02:31:41.712Z,65.10
2018-09-29T02:34:10.106Z,65.68
2018-09-29T02:36:38.447Z,64.49
2018-09-29T02:39:09.333Z,63.53
2018-09-29T02:41:37.773Z,62.41
2018-09-29T02:44:06.152Z,61.49
2018-09-29T02:46:34.493Z,60.14
2018-09-29T02:49:02.855Z,61.19
2018-09-29T02:51:31.221Z,62.65
2018-09-29T02:53:59.559Z,64.63
2018-09-29T02:56:27.896Z,61.16
2018-09-29T02:58:56.276Z,63.33
2018-09-29T03:01:24.801Z,62.32
2018-09-29T03:03:53.152Z,64.19
2018-09-29T03:06:21.991Z,62.73
2018-09-29T03:08:50.368Z,61.09
2018-09-29T03:11:18.795Z,66.06
2018-09-29T03:13:47.176Z,64.99
2018-09-29T03:16:15.572Z,63.65
2018-09-29T03:18:43.928Z,61.22
2018-09-29T03:21:12.324Z,62.40
2018-09-29T03:23:40.676Z,63.06
2018-09-29T03:26:09.047Z,63.06
2018-09-29T03:28:37.412Z,65.71
2018-09-29T03:31:06.903Z,62.09
2018-09-29T03:33:35.268Z,61.76
2018-09-29T03:36:03.572Z,62.08
2018-09-29T03:38:31.940Z,62.45
2018-09-29T03:41:01.363Z,62.55
2018-09-29T03:43:29.746Z,65.59
2018-09-29T03:45:58.127Z,61.74
2018-09-29T03:48:27.443Z,61.92
2018-09-29T03:50:55.779Z,61.15
2018-09-29T03:53:24.196Z,63.53
2018-09-29T03:55:52.528Z,64.75
2018-09-29T03:58:21.196Z,64.87
2018-09-29T04:00:49.751Z,64.27
2018-09-29T04:03:18.189Z,62.56
2018-09-29T04:05:46.562Z,62.16
2018-09-29T04:08:14.931Z,63.89
2018-09-29T04:10:43.300Z,65.46
2018-09-29T04:13:11.810Z,63.66
2018-09-29T04:15:40.129Z,62.26
2018-09-29T04:18:08.452Z,63.22
2018-09-29T04:20:36.789Z,63.58
2018-09-29T04:23:05.101Z,65.06
2018-09-29T04:25:33.402Z,62.89
2018-09-29T04:28:01.736Z,63.50
2018-09-29T04:30:31.106Z,65.07
2018-09-29T04:32:59.470Z,64.80
2018-09-29T04:35:27.803Z,65.28
2018-09-29T04:37:56.168Z,62.45
2018-09-29T04:40:24.597Z,63.50
2018-09-29T04:42:52.935Z,62.58
2018-09-29T04:45:21.299Z,62.18
2018-09-29T04:47:49.609Z,65.58
2018-09-29T04:50:18.030Z,65.14
2018-09-29T04:52:46.427Z,65.21
2018-09-29T04:55:14.770Z,63.41
2018-09-29T04:57:43.103Z,64.17
2018-09-29T05:00:11.531Z,64.29
2018-09-29T05:02:39.922Z,62.73
2018-09-29T05:05:09.244Z,64.63
2018-09-29T05:07:37.574Z,63.80
2018-09-29T05:10:05.984Z,63.04
2018-09-29T05:12:34.319Z,63.50
2018-09-29T05:15:02.631Z,63.15
2018-09-29T05:17:30.935Z,64.80
2018-09-29T05:19:59.243Z,62.59
2018-09-29T05:22:27.537Z,61.75
2018-09-29T05:24:55.875Z,63.95
2018-09-29T05:27:24.223Z,65.64
2018-09-29T05:29:55.952Z,64.40
2018-09-29T05:32:24.336Z,63.83
2018-09-29T05:34:52.697Z,63.06
2018-09-29T05:37:21.092Z,64.90
2018-09-29T05:39:49.447Z,63.20
2018-09-29T05:42:17.800Z,63.36
2018-09-29T05:44:46.144Z,61.84
2018-09-29T05:47:14.524Z,62.10
2018-09-29T05:49:42.938Z,61.38
2018-09-29T05:52:11.382Z,61.46
2018-09-29T05:54:39.716Z,61.41
2018-09-29T05:57:08.131Z,62.50
2018-09-29T05:59:36.535Z,65.16
2018-09-29T06:02:04.948Z,63.92
2018-09-29T06:04:33.413Z,64.51
2018-09-29T06:07:01.836Z,63.12
2018-09-29T06:09:30.128Z,64.84
2018-09-29T06:11:58.426Z,61.16
2018-09-29T06:14:26.816Z,61.26
2018-09-29T06:16:55.191Z,62.59
2018-09-29T06:19:23.561Z,64.47
2018-09-29T06:21:51.920Z,62.93
2018-09-29T06:24:20.419Z,63.70
2018-09-29T06:26:48.769Z,62.72
2018-09-29T06:29:17.089Z,59.39
2018-09-29T06:31:45.417Z,54.04
2018-09-29T06:34:13.812Z,48.49
2018-09-29T06:36:42.115Z,42.81
2018-09-29T06:39:11.621Z,42.22
2018-09-29T06:41:39.958Z,38.74
2018-09-29T06:44:08.274Z,37.96
2018-09-29T06:46:36.688Z,40.44
2018-09-29T06:49:05.049Z,40.15
2018-09-29T06:51:33.668Z,36.29
2018-09-29T06:54:02.008Z,34.94
2018-09-29T06:56:30.345Z,34.73
2018-09-29T06:58:58.680Z,32.86
2018-09-29T07:01:27.000Z,32.79
2018-09-29T07:03:55.352Z,35.30
2018-09-29T07:06:23.728Z,33.17
2018-09-29T07:08:52.060Z,35.61
2018-09-29T07:11:20.474Z,40.60
2018-09-29T07:13:48.849Z,43.49
2018-09-29T07:16:17.307Z,44.07
2018-09-29T07:18:45.717Z,45.84
2018-09-29T07:21:14.117Z,45.75
2018-09-29T07:23:42.641Z,49.42
2018-09-29T07:26:11.020Z,52.61
2018-09-29T07:28:39.496Z,52.50
2018-09-29T07:31:07.914Z,52.28
2018-09-29T07:33:36.500Z,51.72
2018-09-29T07:36:04.871Z,54.06
2018-09-29T07:38:33.220Z,53.04
2018-09-29T07:41:01.568Z,53.47
2018-09-29T07:43:29.928Z,52.46
2018-09-29T07:45:58.300Z,51.62
2018-09-29T07:48:26.714Z,52.68
2018-09-29T07:50:55.076Z,51.30
2018-09-29T07:53:23.478Z,51.35
2018-09-29T07:55:51.879Z,50.61
2018-09-29T07:58:20.345Z,50.24
2018-09-29T08:00:48.889Z,50.52
2018-09-29T08:03:17.284Z,48.90
2018-09-29T08:05:45.660Z,48.44
2018-09-29T08:08:14.041Z,48.84
2018-09-29T08:10:42.505Z,46.21
2018-09-29T08:13:10.942Z,45.04
2018-09-29T08:15:40.304Z,41.91
2018-09-29T08:18:08.692Z,41.06
2018-09-29T08:20:37.040Z,37.02
2018-09-29T08:23:05.444Z,34.36
2018-09-29T08:25:33.804Z,31.54
2018-09-29T08:28:02.161Z,32.86
2018-09-29T08:30:30.509Z,31.31
2018-09-29T08:32:58.864Z,29.18
2018-09-29T08:35:27.348Z,28.41
2018-09-29T08:37:55.743Z,27.81
2018-09-29T08:40:24.089Z,27.27
2018-09-29T08:42:52.501Z,26.57
2018-09-29T08:45:20.856Z,23.90
2018-09-29T08:47:49.221Z,22.93
2018-09-29T08:50:17.580Z,23.77
2018-09-29T08:52:45.977Z,24.96
2018-09-29T08:55:14.384Z,26.37
2018-09-29T08:57:42.710Z,25.42
2018-09-29T09:00:11.002Z,24.95
2018-09-29T09:02:39.322Z,25.19
2018-09-29T09:05:07.629Z,23.88
2018-09-29T09:07:35.989Z,24.02
2018-09-29T09:10:04.380Z,25.49
2018-09-29T09:12:32.844Z,24.63
2018-09-29T09:15:01.248Z,27.12
2018-09-29T09:17:29.600Z,24.58
2018-09-29T09:19:57.944Z,24.28
2018-09-29T09:22:26.270Z,22.91
2018-09-29T09:24:54.678Z,22.18
2018-09-29T09:27:22.992Z,22.78
2018-09-29T09:29:51.359Z,23.09
2018-09-29T09:32:19.781Z,22.03
2018-09-29T09:34:48.155Z,21.28
2018-09-29T09:37:16.485Z,20.98
2018-09-29T09:39:44.878Z,20.41
2018-09-29T09:42:13.277Z,22.00
2018-09-29T09:44:41.673Z,21.42
2018-09-29T09:47:10.092Z,20.77
2018-09-29T09:49:38.847Z,19.73
2018-09-29T09:52:07.376Z,20.42
2018-09-29T09:54:35.784Z,19.60
2018-09-29T09:57:04.242Z,19.65
2018-09-29T09:59:35.464Z,19.03
2018-09-29T10:02:08.964Z,18.96
2018-09-29T10:04:37.266Z,18.64
2018-09-29T10:07:07.346Z,20.17
2018-09-29T10:09:36.420Z,19.02
2018-09-29T10:12:05.007Z,19.86
2018-09-29T10:14:33.521Z,20.96
2018-09-29T10:17:01.985Z,20.72
2018-09-29T10:19:30.588Z,19.63
2018-09-29T10:21:59.060Z,19.70
2018-09-29T10:24:27.536Z,19.69
2018-09-29T10:26:56.002Z,20.71
2018-09-29T10:29:24.431Z,20.12
2018-09-29T10:31:52.869Z,18.16
2018-09-29T10:34:21.371Z,18.59
2018-09-29T10:36:49.840Z,17.56
2018-09-29T10:39:18.305Z,19.82
2018-09-29T10:41:47.993Z,20.70
2018-09-29T10:44:16.419Z,21.97
2018-09-29T10:46:44.760Z,21.09
2018-09-29T10:49:13.104Z,22.85
2018-09-29T10:51:41.473Z,24.24
2018-09-29T10:54:09.968Z,24.98
2018-09-29T10:56:38.441Z,26.82
2018-09-29T10:59:07.083Z,26.80
2018-09-29T11:01:35.472Z,26.22
2018-09-29T11:04:03.980Z,26.17
2018-09-29T11:06:32.576Z,27.31
2018-09-29T11:09:01.006Z,26.67
2018-09-29T11:11:29.452Z,26.59
2018-09-29T11:13:58.669Z,23.66
2018-09-29T11:16:27.290Z,22.27
2018-09-29T11:18:56.189Z,23.55
2018-09-29T11:21:24.789Z,22.51
2018-09-29T11:23:53.305Z,21.30
2018-09-29T11:26:21.756Z,20.43
2018-09-29T11:28:50.190Z,19.83
2018-09-29T11:31:18.837Z,19.71
2018-09-29T11:33:47.209Z,20.84
2018-09-29T11:36:15.720Z,20.37
2018-09-29T11:38:44.207Z,20.05
2018-09-29T11:41:12.665Z,20.27
2018-09-29T11:43:41.115Z,21.32
2018-09-29T11:46:09.593Z,20.87
2018-09-29T11:48:38.145Z,21.35
2018-09-29T11:51:06.832Z,20.74
2018-09-29T11:53:35.181Z,19.95
2018-09-29T11:56:03.704Z,20.63
2018-09-29T11:58:32.264Z,20.38
2018-09-29T12:01:00.696Z,20.11
2018-09-29T12:03:30.003Z,20.83
2018-09-29T12:05:58.477Z,19.90
2018-09-29T12:08:26.916Z,19.59
2018-09-29T12:10:55.396Z,19.72
2018-09-29T12:13:23.954Z,18.92
2018-09-29T12:15:52.548Z,18.61
2018-09-29T12:18:21.090Z,18.87
2018-09-29T12:20:49.521Z,18.21
2018-09-29T12:23:18.000Z,18.98
2018-09-29T12:25:46.448Z,20.07
2018-09-29T12:28:14.916Z,20.14
2018-09-29T12:30:43.518Z,19.69
2018-09-29T12:33:11.978Z,21.25
2018-09-29T12:35:41.282Z,21.88
2018-09-29T12:38:09.721Z,22.54
2018-09-29T12:40:38.153Z,24.31
2018-09-29T12:43:06.620Z,24.06
2018-09-29T12:45:35.044Z,23.54
2018-09-29T12:48:03.399Z,25.81
2018-09-29T12:50:31.786Z,25.83
2018-09-29T12:53:00.273Z,24.08
2018-09-29T12:55:28.652Z,25.40
2018-09-29T12:57:57.077Z,24.69
2018-09-29T13:00:25.563Z,25.13
2018-09-29T13:02:53.996Z,26.11
2018-09-29T13:05:22.485Z,25.54
2018-09-29T13:07:50.873Z,26.00
2018-09-29T13:10:19.333Z,25.30
2018-09-29T13:12:47.710Z,26.00
2018-09-29T13:15:16.157Z,25.88
2018-09-29T13:17:44.605Z,23.71
2018-09-29T13:20:13.085Z,24.13
2018-09-29T13:22:41.544Z,23.81
2018-09-29T13:25:09.993Z,24.64
2018-09-29T13:27:38.495Z,24.45
2018-09-29T13:30:06.957Z,24.02
2018-09-29T13:32:35.485Z,22.85
2018-09-29T13:35:03.988Z,21.91
2018-09-29T13:37:32.423Z,23.32
2018-09-29T13:40:00.933Z,23.45
2018-09-29T13:42:29.372Z,24.29
2018-09-29T13:44:57.836Z,25.03
2018-09-29T13:47:26.394Z,24.53
2018-09-29T13:49:54.832Z,24.07
2018-09-29T13:52:23.385Z,25.24
2018-09-29T13:54:51.815Z,25.23
2018-09-29T13:57:20.318Z,25.31
2018-09-29T13:59:48.880Z,24.93
2018-09-29T14:02:17.357Z,25.39
2018-09-29T14:04:45.728Z,24.92
2018-09-29T14:07:14.200Z,26.29
2018-09-29T14:09:42.792Z,25.90
2018-09-29T14:12:11.302Z,26.34
2018-09-29T14:14:39.812Z,27.41
2018-09-29T14:17:08.247Z,26.89
2018-09-29T14:19:36.679Z,26.04
2018-09-29T14:22:05.190Z,26.73
2018-09-29T14:24:33.775Z,28.12
2018-09-29T14:27:02.207Z,26.92
2018-09-29T14:29:30.612Z,25.60
2018-09-29T14:31:59.038Z,25.97
2018-09-29T14:34:27.693Z,26.74
2018-09-29T14:36:56.180Z,26.75
2018-09-29T14:39:24.657Z,25.41
2018-09-29T14:41:53.181Z,24.66
2018-09-29T14:44:21.625Z,23.26
2018-09-29T14:46:50.101Z,24.21
2018-09-29T14:49:18.760Z,25.54
2018-09-29T14:51:47.340Z,24.40
2018-09-29T14:54:15.949Z,24.32
2018-09-29T14:56:44.439Z,25.19
2018-09-29T14:59:12.956Z,25.32
2018-09-29T15:01:41.477Z,24.65
2018-09-29T15:04:09.988Z,25.65
2018-09-29T15:06:38.480Z,24.64
2018-09-29T15:09:09.198Z,25.37
2018-09-29T15:11:37.732Z,24.30
2018-09-29T15:14:06.208Z,24.53
2018-09-29T15:16:37.515Z,24.00
2018-09-29T15:19:06.100Z,23.32
2018-09-29T15:21:34.616Z,24.30
2018-09-29T15:24:03.085Z,24.51
2018-09-29T15:26:31.807Z,24.79
2018-09-29T15:29:00.300Z,23.53
2018-09-29T15:31:28.795Z,22.44
2018-09-29T15:33:57.288Z,22.82
2018-09-29T15:36:25.744Z,23.14
2018-09-29T15:38:54.362Z,23.30
2018-09-29T15:41:22.844Z,23.71
2018-09-29T15:43:51.251Z,24.06
2018-09-29T15:46:19.717Z,25.16
2018-09-29T15:48:51.254Z,23.73
2018-09-29T15:51:20.398Z,24.07
2018-09-29T15:53:48.868Z,25.65
2018-09-29T15:56:17.316Z,25.07
2018-09-29T15:58:45.721Z,26.71
2018-09-29T16:01:14.117Z,25.25
2018-09-29T16:03:42.520Z,26.44
2018-09-29T16:06:11.134Z,26.30
2018-09-29T16:08:39.571Z,26.11
2018-09-29T16:11:08.005Z,27.54
2018-09-29T16:13:36.536Z,26.79
2018-09-29T16:16:04.968Z,26.30
2018-09-29T16:18:40.840Z,26.58
2018-09-29T16:21:09.339Z,28.58
2018-09-29T16:23:37.798Z,28.21
2018-09-29T16:26:06.603Z,26.71
2018-09-29T16:28:35.046Z,28.67
2018-09-29T16:31:10.144Z,26.74
2018-09-29T16:33:38.617Z,28.64
2018-09-29T16:36:07.652Z,30.44
2018-09-29T16:38:36.305Z,28.90
2018-09-29T16:41:05.376Z,28.40
2018-09-29T16:43:34.100Z,30.38
2018-09-29T16:46:02.627Z,31.37
2018-09-29T16:48:31.112Z,33.98
2018-09-29T16:50:59.548Z,35.67
2018-09-29T16:53:28.001Z,34.88
2018-09-29T16:55:56.449Z,34.45
2018-09-29T16:58:24.968Z,34.51
2018-09-29T17:00:53.392Z,35.19
2018-09-29T17:03:21.862Z,35.91
2018-09-29T17:05:50.328Z,36.97
2018-09-29T17:08:18.934Z,37.24
2018-09-29T17:10:47.399Z,37.12
2018-09-29T17:13:15.880Z,36.52
2018-09-29T17:15:44.440Z,38.77
2018-09-29T17:18:12.923Z,40.06
2018-09-29T17:20:41.409Z,39.71
2018-09-29T17:23:09.908Z,40.13
2018-09-29T17:25:38.337Z,40.09
2018-09-29T17:28:06.861Z,41.81
2018-09-29T17:30:35.316Z,41.26
2018-09-29T17:33:03.787Z,40.97
2018-09-29T17:35:32.227Z,42.55
2018-09-29T17:38:06.869Z,40.87
2018-09-29T17:40:35.280Z,41.28
2018-09-29T17:43:03.781Z,41.27
2018-09-29T17:45:32.383Z,42.55
2018-09-29T17:48:00.804Z,41.77
2018-09-29T17:50:29.291Z,42.89
2018-09-29T17:52:57.757Z,42.99
2018-09-29T17:55:26.436Z,43.84
2018-09-29T17:57:54.912Z,43.03
2018-09-29T18:00:23.368Z,43.84
2018-09-29T18:02:51.852Z,43.94
2018-09-29T18:05:20.323Z,44.10
2018-09-29T18:07:48.840Z,44.32
2018-09-29T18:10:17.365Z,44.19
2018-09-29T18:12:45.867Z,45.23
2018-09-29T18:15:14.365Z,45.18
2018-09-29T18:17:42.835Z,44.17
2018-09-29T18:20:11.381Z,44.58
2018-09-29T18:22:39.852Z,46.28
2018-09-29T18:25:08.439Z,46.78
2018-09-29T18:27:36.893Z,45.70
2018-09-29T18:30:05.692Z,45.64
2018-09-29T18:32:34.181Z,45.40
2018-09-29T18:35:02.576Z,46.55
2018-09-29T18:37:30.983Z,45.86
2018-09-29T18:39:59.376Z,46.70
2018-09-29T18:42:27.778Z,46.76
2018-09-29T18:44:56.237Z,46.62
2018-09-29T18:47:24.662Z,46.49
2018-09-29T18:49:53.112Z,47.42
2018-09-29T18:52:21.564Z,46.27
2018-09-29T18:54:49.996Z,46.47
2018-09-29T18:57:18.480Z,46.54
2018-09-29T18:59:53.188Z,48.74
2018-09-29T19:02:21.625Z,47.73
2018-09-29T19:04:50.086Z,47.21
2018-09-29T19:07:18.604Z,48.26
2018-09-29T19:09:47.073Z,49.88
2018-09-29T19:12:15.512Z,48.85
2018-09-29T19:14:44.868Z,49.26
2018-09-29T19:17:13.412Z,46.92
2018-09-29T19:19:41.938Z,47.79
2018-09-29T19:22:10.553Z,48.17
2018-09-29T19:24:39.088Z,50.08
2018-09-29T19:27:07.532Z,48.27
2018-09-29T19:29:35.973Z,47.91
2018-09-29T19:32:04.458Z,49.86
2018-09-29T19:34:32.892Z,50.53
2018-09-29T19:37:01.357Z,50.63
2018-09-29T19:39:29.902Z,49.51
2018-09-29T19:41:58.300Z,50.22
2018-09-29T19:44:26.736Z,50.93
2018-09-29T19:46:55.251Z,50.73
2018-09-29T19:49:23.768Z,50.45
2018-09-29T19:51:52.191Z,50.25
2018-09-29T19:54:20.625Z,49.57
2018-09-29T19:56:49.173Z,49.06
2018-09-29T19:59:17.582Z,52.41
2018-09-29T20:01:45.997Z,51.67
2018-09-29T20:04:14.684Z,49.38
2018-09-29T20:06:43.144Z,50.92
2018-09-29T20:09:11.818Z,51.21
2018-09-29T20:11:40.300Z,50.05
2018-09-29T20:14:08.756Z,50.93
2018-09-29T20:16:37.329Z,50.42
2018-09-29T20:19:05.853Z,50.31
2018-09-29T20:21:34.360Z,52.01
2018-09-29T20:24:02.842Z,53.54
2018-09-29T20:26:31.456Z,51.32
2018-09-29T20:28:59.910Z,50.62
2018-09-29T20:31:28.543Z,51.27
2018-09-29T20:33:57.028Z,51.63
2018-09-29T20:36:25.510Z,50.99
2018-09-29T20:38:53.915Z,50.69
2018-09-29T20:41:22.405Z,54.14
2018-09-29T20:43:50.851Z,52.25
2018-09-29T20:46:19.356Z,51.88
2018-09-29T20:48:47.823Z,52.27
2018-09-29T20:51:16.201Z,54.66
2018-09-29T20:53:44.652Z,53.14
2018-09-29T20:56:13.023Z,53.25
2018-09-29T20:58:41.319Z,55.10
2018-09-29T21:01:09.688Z,53.79
2018-09-29T21:03:38.047Z,54.14
2018-09-29T21:06:06.411Z,53.77
2018-09-29T21:08:34.901Z,52.55
2018-09-29T21:11:03.348Z,52.48
2018-09-29T21:13:31.972Z,51.99
2018-09-29T21:16:00.566Z,54.08
2018-09-29T21:18:29.075Z,53.71
2018-09-29T21:20:57.552Z,55.78
2018-09-29T21:23:26.101Z,54.92
2018-09-29T21:25:54.633Z,55.73
2018-09-29T21:28:23.203Z,54.78
2018-09-29T21:30:51.613Z,54.56
2018-09-29T21:33:20.133Z,53.60
2018-09-29T21:35:48.600Z,55.29
2018-09-29T21:38:17.111Z,56.04
2018-09-29T21:40:45.524Z,54.54
2018-09-29T21:43:13.917Z,57.39
2018-09-29T21:45:42.306Z,55.02
2018-09-29T21:48:10.730Z,56.29
2018-09-29T21:50:39.136Z,56.31
2018-09-29T21:53:07.595Z,56.43
2018-09-29T21:55:36.012Z,56.44
2018-09-29T21:58:04.444Z,54.21
2018-09-29T22:00:38.100Z,55.14
2018-09-29T22:03:06.810Z,57.37
2018-09-29T22:05:35.414Z,55.40
2018-09-29T22:08:03.855Z,55.75
2018-09-29T22:10:32.280Z,56.50
2018-09-29T22:13:00.723Z,57.84
2018-09-29T22:15:29.112Z,55.97
2018-09-29T22:17:57.524Z,54.76
2018-09-29T22:20:25.947Z,55.29
2018-09-29T22:22:54.388Z,55.70
2018-09-29T22:25:22.808Z,56.87
2018-09-29T22:27:51.315Z,57.17
2018-09-29T22:30:19.741Z,58.48
2018-09-29T22:32:48.100Z,55.69
2018-09-29T22:35:16.627Z,56.01
2018-09-29T22:37:45.096Z,57.07
2018-09-29T22:40:13.543Z,55.71
2018-09-29T22:42:41.961Z,55.63
2018-09-29T22:45:10.445Z,56.95
2018-09-29T22:47:38.919Z,59.20
2018-09-29T22:50:07.416Z,57.75
2018-09-29T22:52:35.917Z,56.08
2018-09-29T22:55:04.347Z,56.61
2018-09-29T22:57:32.824Z,57.93
2018-09-29T23:00:01.233Z,56.47
2018-09-29T23:02:29.720Z,57.43
2018-09-29T23:04:58.112Z,58.17
2018-09-29T23:07:26.656Z,58.07
2018-09-29T23:09:55.150Z,56.62
2018-09-29T23:12:23.585Z,58.34
2018-09-29T23:14:52.073Z,57.06
2018-09-29T23:17:20.593Z,57.77
2018-09-29T23:19:49.053Z,58.93
2018-09-29T23:22:17.440Z,57.73
2018-09-29T23:24:45.930Z,56.62
2018-09-29T23:27:14.427Z,58.14
2018-09-29T23:29:42.991Z,56.50
2018-09-29T23:32:11.496Z,57.40
2018-09-29T23:34:39.837Z,58.29
2018-09-29T23:37:08.215Z,57.81
2018-09-29T23:39:36.661Z,57.93
2018-09-29T23:42:05.140Z,57.33
2018-09-29T23:44:33.675Z,58.40
2018-09-29T23:47:02.068Z,58.28
2018-09-29T23:49:30.639Z,57.60
2018-09-29T23:51:59.022Z,57.84
2018-09-29T23:54:27.468Z,57.51
2018-09-29T23:56:55.858Z,57.28
2018-09-29T23:59:24.300Z,57.67
